createdAt,value
2023-02-20T00:00:54.018Z,38.54
2023-02-20T00:03:21.579Z,38.25
2023-02-20T00:05:48.354Z,38.65
2023-02-20T00:08:14.798Z,38.28
2023-02-20T00:10:41.408Z,38.37
2023-02-20T00:13:08.335Z,38.54
2023-02-20T00:15:34.914Z,38.52
2023-02-20T00:18:01.381Z,38.19
2023-02-20T00:20:30.144Z,38.54
2023-02-20T00:22:56.615Z,38.07
2023-02-20T00:25:23.145Z,38.50
2023-02-20T00:27:49.614Z,38.50
2023-02-20T00:30:20.075Z,38.46
2023-02-20T00:32:48.051Z,38.37
2023-02-20T00:35:16.411Z,38.46
2023-02-20T00:37:42.967Z,38.42
2023-02-20T00:40:11.716Z,37.94
2023-02-20T00:42:38.292Z,38.52
2023-02-20T00:45:05.692Z,38.59
2023-02-20T00:47:32.307Z,38.29
2023-02-20T00:49:58.819Z,38.28
2023-02-20T00:52:25.330Z,38.32
2023-02-20T00:54:51.810Z,37.94
2023-02-20T00:57:18.448Z,38.30
2023-02-20T00:59:44.903Z,37.82
2023-02-20T01:02:11.524Z,38.47
2023-02-20T01:04:38.337Z,38.20
2023-02-20T01:07:04.855Z,38.34
2023-02-20T01:09:31.884Z,38.16
2023-02-20T01:11:58.395Z,37.96
2023-02-20T01:14:25.197Z,38.31
2023-02-20T01:16:52.454Z,38.13
2023-02-20T01:19:19.907Z,37.97
2023-02-20T01:21:48.576Z,37.93
2023-02-20T01:24:15.309Z,37.75
2023-02-20T01:26:42.365Z,38.13
2023-02-20T01:29:08.795Z,38.23
2023-02-20T01:31:35.432Z,38.07
2023-02-20T01:34:02.060Z,38.07
2023-02-20T01:36:28.660Z,38.18
2023-02-20T01:38:55.442Z,37.98
2023-02-20T01:41:22.338Z,37.94
2023-02-20T01:43:48.849Z,37.98
2023-02-20T01:46:39.975Z,37.52
2023-02-20T01:49:11.372Z,37.84
2023-02-20T01:51:39.100Z,37.56
2023-02-20T01:54:06.269Z,37.45
2023-02-20T01:56:33.003Z,37.56
2023-02-20T01:58:59.467Z,37.46
2023-02-20T02:01:25.944Z,37.57
2023-02-20T02:03:56.171Z,37.32
2023-02-20T02:06:22.780Z,37.69
2023-02-20T02:08:49.444Z,37.65
2023-02-20T02:11:16.976Z,37.67
2023-02-20T02:13:43.630Z,37.19
2023-02-20T02:16:16.387Z,37.29
2023-02-20T02:18:59.628Z,37.67
2023-02-20T02:21:32.422Z,37.80
2023-02-20T02:24:02.340Z,37.55
2023-02-20T02:26:47.667Z,37.53
2023-02-20T02:29:21.524Z,37.54
2023-02-20T02:31:53.927Z,37.62
2023-02-20T02:34:20.430Z,37.19
2023-02-20T02:36:50.030Z,37.29
2023-02-20T02:39:18.368Z,37.42
2023-02-20T02:41:46.664Z,37.58
2023-02-20T02:44:16.169Z,37.66
2023-02-20T02:46:44.005Z,37.43
2023-02-20T02:49:32.657Z,37.73
2023-02-20T02:52:01.086Z,37.38
2023-02-20T02:54:28.103Z,37.17
2023-02-20T02:57:14.529Z,37.08
2023-02-20T02:59:42.587Z,37.59
2023-02-20T03:02:09.672Z,37.12
2023-02-20T03:04:37.032Z,37.17
2023-02-20T03:07:07.712Z,37.07
2023-02-20T03:09:55.169Z,37.56
2023-02-20T03:12:21.742Z,37.46
2023-02-20T03:15:24.410Z,37.60
2023-02-20T03:18:11.535Z,37.15
2023-02-20T03:20:58.711Z,37.65
2023-02-20T03:23:27.172Z,37.52
2023-02-20T03:25:54.553Z,36.98
2023-02-20T03:28:23.184Z,37.09
2023-02-20T03:30:53.931Z,37.06
2023-02-20T03:33:51.428Z,37.60
2023-02-20T03:36:40.638Z,37.10
2023-02-20T03:39:30.920Z,37.08
2023-02-20T03:42:17.752Z,37.09
2023-02-20T03:44:48.844Z,37.46
2023-02-20T03:47:16.261Z,37.02
2023-02-20T03:49:43.469Z,37.04
2023-02-20T03:52:13.887Z,37.35
2023-02-20T03:54:40.409Z,37.29
2023-02-20T03:57:08.627Z,37.54
2023-02-20T03:59:46.153Z,37.12
2023-02-20T04:02:31.705Z,36.84
2023-02-20T04:05:00.309Z,37.13
2023-02-20T04:07:50.092Z,36.95
2023-02-20T04:10:19.524Z,37.36
2023-02-20T04:12:46.140Z,37.15
2023-02-20T04:15:13.141Z,37.25
2023-02-20T04:17:47.162Z,37.00
2023-02-20T04:20:14.846Z,37.22
2023-02-20T04:22:49.281Z,37.33
2023-02-20T04:25:18.623Z,37.01
2023-02-20T04:27:45.085Z,37.14
2023-02-20T04:30:12.152Z,36.92
2023-02-20T04:32:39.161Z,37.30
2023-02-20T04:35:06.142Z,37.09
2023-02-20T04:37:32.671Z,37.16
2023-02-20T04:39:59.243Z,37.23
2023-02-20T04:42:27.035Z,37.22
2023-02-20T04:44:55.636Z,36.68
2023-02-20T04:47:22.170Z,37.12
2023-02-20T04:49:48.699Z,36.69
2023-02-20T04:52:20.323Z,36.65
2023-02-20T04:54:46.848Z,36.99
2023-02-20T04:57:15.080Z,36.71
2023-02-20T04:59:41.757Z,36.74
2023-02-20T05:02:10.384Z,36.66
2023-02-20T05:04:37.142Z,36.32
2023-02-20T05:07:03.602Z,36.45
2023-02-20T05:09:30.150Z,36.75
2023-02-20T05:11:56.656Z,36.74
2023-02-20T05:14:23.840Z,36.65
2023-02-20T05:16:51.276Z,37.01
2023-02-20T05:19:17.851Z,36.26
2023-02-20T05:22:03.290Z,36.35
2023-02-20T05:24:30.004Z,36.45
2023-02-20T05:26:56.780Z,36.36
2023-02-20T05:29:23.343Z,36.42
2023-02-20T05:31:50.578Z,36.32
2023-02-20T05:34:17.213Z,36.47
2023-02-20T05:36:43.688Z,36.71
2023-02-20T05:39:10.932Z,36.59
2023-02-20T05:41:37.505Z,36.49
2023-02-20T05:44:04.109Z,36.82
2023-02-20T05:46:30.699Z,36.45
2023-02-20T05:48:57.302Z,36.66
2023-02-20T05:51:25.396Z,36.34
2023-02-20T05:53:52.291Z,36.75
2023-02-20T05:56:19.049Z,36.45
2023-02-20T05:58:45.859Z,36.92
2023-02-20T06:01:17.778Z,36.19
2023-02-20T06:03:44.339Z,36.90
2023-02-20T06:06:11.109Z,36.72
2023-02-20T06:08:38.657Z,36.72
2023-02-20T06:11:05.098Z,36.62
2023-02-20T06:13:31.635Z,36.69
2023-02-20T06:15:58.084Z,36.91
2023-02-20T06:18:24.582Z,36.61
2023-02-20T06:20:51.131Z,36.97
2023-02-20T06:23:17.658Z,37.01
2023-02-20T06:25:44.163Z,36.52
2023-02-20T06:28:10.799Z,36.89
2023-02-20T06:30:37.470Z,36.79
2023-02-20T06:33:04.101Z,36.96
2023-02-20T06:35:30.625Z,36.99
2023-02-20T06:37:57.167Z,37.07
2023-02-20T06:40:23.584Z,37.22
2023-02-20T06:42:50.334Z,36.80
2023-02-20T06:45:16.958Z,37.29
2023-02-20T06:47:43.753Z,36.90
2023-02-20T06:50:10.477Z,37.21
2023-02-20T06:52:37.174Z,37.02
2023-02-20T06:55:03.792Z,37.30
2023-02-20T06:57:31.771Z,37.49
2023-02-20T06:59:58.438Z,37.20
2023-02-20T07:02:24.942Z,37.08
2023-02-20T07:04:51.696Z,37.13
2023-02-20T07:07:19.446Z,37.54
2023-02-20T07:09:45.917Z,37.51
2023-02-20T07:12:12.465Z,37.33
2023-02-20T07:14:39.251Z,37.19
2023-02-20T07:17:05.741Z,37.19
2023-02-20T07:19:32.176Z,37.43
2023-02-20T07:22:01.498Z,37.48
2023-02-20T07:24:28.535Z,37.84
2023-02-20T07:26:57.985Z,37.92
2023-02-20T07:29:24.452Z,37.54
2023-02-20T07:31:51.102Z,37.81
2023-02-20T07:34:17.672Z,37.55
2023-02-20T07:36:44.193Z,37.65
2023-02-20T07:39:10.764Z,37.63
2023-02-20T07:41:37.451Z,37.55
2023-02-20T07:44:05.577Z,37.61
2023-02-20T07:46:34.110Z,37.58
2023-02-20T07:49:01.727Z,37.58
2023-02-20T07:51:28.396Z,37.83
2023-02-20T07:53:55.338Z,37.51
2023-02-20T07:56:22.278Z,37.84
2023-02-20T07:58:48.766Z,37.65
2023-02-20T08:01:15.464Z,37.93
2023-02-20T08:03:42.016Z,37.63
2023-02-20T08:06:08.489Z,38.03
2023-02-20T08:08:35.022Z,37.75
2023-02-20T08:11:08.914Z,37.74
2023-02-20T08:13:36.799Z,37.82
2023-02-20T08:16:03.407Z,38.01
2023-02-20T08:18:30.166Z,38.03
2023-02-20T08:20:56.646Z,37.89
2023-02-20T08:23:24.072Z,37.60
2023-02-20T08:25:51.922Z,37.80
2023-02-20T08:28:18.479Z,37.83
2023-02-20T08:30:45.011Z,37.78
2023-02-20T08:33:11.741Z,37.95
2023-02-20T08:35:38.514Z,38.12
2023-02-20T08:38:06.247Z,38.16
2023-02-20T08:40:33.034Z,38.13
2023-02-20T08:42:59.867Z,37.82
2023-02-20T08:45:26.558Z,38.17
2023-02-20T08:47:56.454Z,38.05
2023-02-20T08:50:23.070Z,37.86
2023-02-20T08:52:49.571Z,37.87
2023-02-20T08:55:16.178Z,38.18
2023-02-20T08:57:43.133Z,38.11
2023-02-20T09:00:10.380Z,38.00
2023-02-20T09:02:37.203Z,37.86
2023-02-20T09:05:04.554Z,37.65
2023-02-20T09:07:31.028Z,37.81
2023-02-20T09:09:57.757Z,38.07
2023-02-20T09:12:24.429Z,37.81
2023-02-20T09:14:50.920Z,38.19
2023-02-20T09:17:18.718Z,37.85
2023-02-20T09:19:45.230Z,37.83
2023-02-20T09:22:11.777Z,37.89
2023-02-20T09:24:38.409Z,37.86
2023-02-20T09:27:08.650Z,37.62
2023-02-20T09:29:39.015Z,37.76
2023-02-20T09:32:05.840Z,37.75
2023-02-20T09:34:33.527Z,37.39
2023-02-20T09:37:00.161Z,37.50
2023-02-20T09:39:26.747Z,37.93
2023-02-20T09:42:11.788Z,38.08
2023-02-20T09:44:53.831Z,38.02
2023-02-20T09:47:23.418Z,37.98
2023-02-20T09:49:50.344Z,37.96
2023-02-20T09:52:16.825Z,37.72
2023-02-20T09:54:45.293Z,37.55
2023-02-20T09:57:15.366Z,37.56
2023-02-20T09:59:47.466Z,37.64
2023-02-20T10:02:46.962Z,37.62
2023-02-20T10:05:23.709Z,37.68
2023-02-20T10:07:50.327Z,38.03
2023-02-20T10:10:21.148Z,38.05
2023-02-20T10:13:00.507Z,37.77
2023-02-20T10:15:35.514Z,37.79
2023-02-20T10:18:09.433Z,37.77
2023-02-20T10:20:54.779Z,37.68
2023-02-20T10:23:27.903Z,38.04
2023-02-20T10:25:56.630Z,37.99
2023-02-20T10:28:23.567Z,38.18
2023-02-20T10:31:02.938Z,38.10
2023-02-20T10:33:42.133Z,38.22
2023-02-20T10:36:10.636Z,38.20
2023-02-20T10:38:41.940Z,37.75
2023-02-20T10:41:11.713Z,37.78
2023-02-20T10:43:40.850Z,37.89
2023-02-20T10:46:11.155Z,38.23
2023-02-20T10:48:39.647Z,37.94
2023-02-20T10:51:07.218Z,37.65
2023-02-20T10:53:52.534Z,38.12
2023-02-20T10:56:20.443Z,38.16
2023-02-20T10:58:49.610Z,37.64
2023-02-20T11:01:20.385Z,38.23
2023-02-20T11:04:05.308Z,38.08
2023-02-20T11:06:37.300Z,38.01
2023-02-20T11:09:03.967Z,37.87
2023-02-20T11:11:35.078Z,37.66
2023-02-20T11:14:02.568Z,38.11
2023-02-20T11:16:31.268Z,38.06
2023-02-20T11:19:07.582Z,37.73
2023-02-20T11:21:38.766Z,37.54
2023-02-20T11:24:21.816Z,37.85
2023-02-20T11:26:48.834Z,37.84
2023-02-20T11:29:16.677Z,37.73
2023-02-20T11:31:43.981Z,37.60
2023-02-20T11:34:14.364Z,37.53
2023-02-20T11:37:07.640Z,37.96
2023-02-20T11:39:34.160Z,37.80
2023-02-20T11:42:05.168Z,37.86
2023-02-20T11:44:31.689Z,37.69
2023-02-20T11:47:10.032Z,37.83
2023-02-20T11:49:36.694Z,37.85
2023-02-20T11:52:07.844Z,37.92
2023-02-20T11:54:34.357Z,37.97
2023-02-20T11:57:20.277Z,37.96
2023-02-20T11:59:48.423Z,37.82
2023-02-20T12:02:18.113Z,37.56
2023-02-20T12:04:45.181Z,37.77
2023-02-20T12:07:19.857Z,37.85
2023-02-20T12:09:46.701Z,37.28
2023-02-20T12:12:13.852Z,37.50
2023-02-20T12:14:41.014Z,37.89
2023-02-20T12:17:26.520Z,37.36
2023-02-20T12:19:55.768Z,36.37
2023-02-20T12:22:30.407Z,36.28
2023-02-20T12:25:00.005Z,35.96
2023-02-20T12:27:29.486Z,35.82
2023-02-20T12:30:14.656Z,36.04
2023-02-20T12:32:59.783Z,35.81
2023-02-20T12:35:34.329Z,36.46
2023-02-20T12:38:04.520Z,36.22
2023-02-20T12:40:31.703Z,36.19
2023-02-20T12:43:10.478Z,36.16
2023-02-20T12:45:37.160Z,36.41
2023-02-20T12:48:06.312Z,36.68
2023-02-20T12:50:38.896Z,36.44
2023-02-20T12:53:08.284Z,36.54
2023-02-20T12:55:34.712Z,36.46
2023-02-20T12:58:01.325Z,36.57
2023-02-20T13:00:28.117Z,36.58
2023-02-20T13:03:16.077Z,36.14
2023-02-20T13:05:43.480Z,36.41
2023-02-20T13:08:15.886Z,36.84
2023-02-20T13:10:47.266Z,36.64
2023-02-20T13:13:16.741Z,36.53
2023-02-20T13:15:51.959Z,36.27
2023-02-20T13:18:24.705Z,36.52
2023-02-20T13:20:58.771Z,36.89
2023-02-20T13:23:29.549Z,36.33
2023-02-20T13:25:56.302Z,36.75
2023-02-20T13:28:22.753Z,36.59
2023-02-20T13:31:06.265Z,36.19
2023-02-20T13:33:32.803Z,35.83
2023-02-20T13:35:59.283Z,36.23
2023-02-20T13:38:26.625Z,35.98
2023-02-20T13:40:56.085Z,35.99
2023-02-20T13:43:22.501Z,35.71
2023-02-20T13:45:50.650Z,35.18
2023-02-20T13:48:18.501Z,34.80
2023-02-20T13:50:45.146Z,34.49
2023-02-20T13:53:12.595Z,35.05
2023-02-20T13:55:39.270Z,35.38
2023-02-20T13:58:12.704Z,35.65
2023-02-20T14:00:46.910Z,35.20
2023-02-20T14:03:17.608Z,34.63
2023-02-20T14:05:44.318Z,34.39
2023-02-20T14:08:20.560Z,33.97
2023-02-20T14:10:49.734Z,34.44
2023-02-20T14:13:19.840Z,34.19
2023-02-20T14:15:55.164Z,34.41
2023-02-20T14:18:24.130Z,34.44
2023-02-20T14:20:51.612Z,34.81
2023-02-20T14:23:20.220Z,34.88
2023-02-20T14:26:00.736Z,34.81
2023-02-20T14:28:29.239Z,34.44
2023-02-20T14:31:07.981Z,34.39
2023-02-20T14:33:34.783Z,34.22
2023-02-20T14:36:01.163Z,34.05
2023-02-20T14:38:43.941Z,33.71
2023-02-20T14:41:16.898Z,33.55
2023-02-20T14:43:43.833Z,34.04
2023-02-20T14:46:26.991Z,33.54
2023-02-20T14:49:07.137Z,33.96
2023-02-20T14:51:33.789Z,33.76
2023-02-20T14:54:01.831Z,33.86
2023-02-20T14:56:28.668Z,34.37
2023-02-20T14:58:55.339Z,34.07
2023-02-20T15:01:28.788Z,34.13
2023-02-20T15:04:07.110Z,34.11
2023-02-20T15:06:34.556Z,34.39
2023-02-20T15:09:09.841Z,34.30
2023-02-20T15:11:53.006Z,34.41
2023-02-20T15:14:23.347Z,34.53
2023-02-20T15:17:06.114Z,34.55
2023-02-20T15:19:34.314Z,34.65
2023-02-20T15:22:00.816Z,34.57
2023-02-20T15:24:30.340Z,35.16
2023-02-20T15:27:15.383Z,35.09
2023-02-20T15:29:42.610Z,34.82
2023-02-20T15:32:17.881Z,34.93
2023-02-20T15:34:44.517Z,35.02
2023-02-20T15:37:38.731Z,35.16
2023-02-20T15:40:24.737Z,35.42
2023-02-20T15:42:56.676Z,35.32
2023-02-20T15:45:24.687Z,35.08
2023-02-20T15:47:51.960Z,35.25
2023-02-20T15:50:18.759Z,35.50
2023-02-20T15:52:45.391Z,35.42
2023-02-20T15:55:20.281Z,35.23
2023-02-20T15:57:47.241Z,35.16
2023-02-20T16:00:21.374Z,35.26
2023-02-20T16:02:50.504Z,35.11
2023-02-20T16:05:17.223Z,35.31
2023-02-20T16:07:43.812Z,35.17
2023-02-20T16:10:11.224Z,35.22
2023-02-20T16:12:37.837Z,35.80
2023-02-20T16:15:05.817Z,35.39
2023-02-20T16:17:33.204Z,35.70
2023-02-20T16:19:59.939Z,35.45
2023-02-20T16:22:26.556Z,35.51
2023-02-20T16:24:53.185Z,35.79
2023-02-20T16:27:24.323Z,35.54
2023-02-20T16:29:51.789Z,35.86
2023-02-20T16:32:23.068Z,35.84
2023-02-20T16:34:50.429Z,36.08
2023-02-20T16:37:16.962Z,35.75
2023-02-20T16:39:43.648Z,35.57
2023-02-20T16:42:29.454Z,35.70
2023-02-20T16:44:58.533Z,36.11
2023-02-20T16:47:26.477Z,35.77
2023-02-20T16:49:53.957Z,36.17
2023-02-20T16:52:23.451Z,36.13
2023-02-20T16:54:51.685Z,36.30
2023-02-20T16:57:18.392Z,35.81
2023-02-20T16:59:44.897Z,36.06
2023-02-20T17:02:15.121Z,36.28
2023-02-20T17:04:41.759Z,36.50
2023-02-20T17:07:10.369Z,36.36
2023-02-20T17:09:44.231Z,36.11
2023-02-20T17:12:12.000Z,36.39
2023-02-20T17:14:38.445Z,36.39
2023-02-20T17:17:06.625Z,35.93
2023-02-20T17:19:33.723Z,36.16
2023-02-20T17:22:00.635Z,36.28
2023-02-20T17:24:28.238Z,36.46
2023-02-20T17:26:54.866Z,36.32
2023-02-20T17:29:21.335Z,36.53
2023-02-20T17:31:47.962Z,36.73
2023-02-20T17:34:14.567Z,36.70
2023-02-20T17:36:48.025Z,36.40
2023-02-20T17:39:18.461Z,36.56
2023-02-20T17:41:45.189Z,36.74
2023-02-20T17:44:12.213Z,36.38
2023-02-20T17:46:39.221Z,36.75
2023-02-20T17:49:05.844Z,36.18
2023-02-20T17:51:32.360Z,36.39
2023-02-20T17:53:59.939Z,36.21
2023-02-20T17:56:26.456Z,36.79
2023-02-20T17:58:52.930Z,36.30
2023-02-20T18:01:19.486Z,36.21
2023-02-20T18:03:46.010Z,36.53
2023-02-20T18:06:12.916Z,36.62
2023-02-20T18:08:40.120Z,36.63
2023-02-20T18:11:06.574Z,36.75
2023-02-20T18:13:33.073Z,36.54
2023-02-20T18:16:00.507Z,36.32
2023-02-20T18:18:28.160Z,36.42
2023-02-20T18:20:54.609Z,36.51
2023-02-20T18:23:21.462Z,36.59
2023-02-20T18:25:48.462Z,36.82
2023-02-20T18:28:14.965Z,36.85
2023-02-20T18:30:42.080Z,36.98
2023-02-20T18:33:08.921Z,36.84
2023-02-20T18:35:35.499Z,37.00
2023-02-20T18:38:02.125Z,36.55
2023-02-20T18:40:29.338Z,36.66
2023-02-20T18:42:55.912Z,36.64
2023-02-20T18:45:24.209Z,36.84
2023-02-20T18:47:52.208Z,36.91
2023-02-20T18:50:19.042Z,37.00
2023-02-20T18:52:46.833Z,37.05
2023-02-20T18:55:17.485Z,36.67
2023-02-20T18:57:45.773Z,36.42
2023-02-20T19:00:16.637Z,36.69
2023-02-20T19:02:43.321Z,36.98
2023-02-20T19:05:10.967Z,36.50
2023-02-20T19:07:40.438Z,36.40
2023-02-20T19:10:07.025Z,36.58
2023-02-20T19:12:33.542Z,36.87
2023-02-20T19:15:00.393Z,36.40
2023-02-20T19:17:26.953Z,36.37
2023-02-20T19:19:53.446Z,36.57
2023-02-20T19:22:20.241Z,36.80
2023-02-20T19:24:46.675Z,36.48
2023-02-20T19:27:13.275Z,37.05
2023-02-20T19:29:42.238Z,36.72
2023-02-20T19:32:09.150Z,36.51
2023-02-20T19:34:35.637Z,36.77
2023-02-20T19:37:02.613Z,36.60
2023-02-20T19:39:29.327Z,36.87
2023-02-20T19:41:55.817Z,36.87
2023-02-20T19:44:24.098Z,36.92
2023-02-20T19:46:51.917Z,36.80
2023-02-20T19:49:18.836Z,36.43
2023-02-20T19:51:55.020Z,36.91
2023-02-20T19:54:23.596Z,36.78
2023-02-20T19:56:50.894Z,36.74
2023-02-20T19:59:17.715Z,36.45
2023-02-20T20:01:48.685Z,36.74
2023-02-20T20:04:15.282Z,36.81
2023-02-20T20:06:41.867Z,36.98
2023-02-20T20:09:15.007Z,36.56
2023-02-20T20:11:43.261Z,36.53
2023-02-20T20:14:09.770Z,36.54
2023-02-20T20:16:42.037Z,36.51
2023-02-20T20:19:09.944Z,36.90
2023-02-20T20:21:36.829Z,36.90
2023-02-20T20:24:04.109Z,36.66
2023-02-20T20:26:31.551Z,37.06
2023-02-20T20:28:58.401Z,36.70
2023-02-20T20:31:25.680Z,36.95
2023-02-20T20:33:52.395Z,36.96
2023-02-20T20:36:19.759Z,36.86
2023-02-20T20:38:46.493Z,36.74
2023-02-20T20:41:14.914Z,36.83
2023-02-20T20:43:45.110Z,36.66
2023-02-20T20:46:14.110Z,36.79
2023-02-20T20:48:41.151Z,37.15
2023-02-20T20:51:08.473Z,36.71
2023-02-20T20:53:34.972Z,37.24
2023-02-20T20:56:01.443Z,36.75
2023-02-20T20:58:28.834Z,37.22
2023-02-20T21:00:55.368Z,37.05
2023-02-20T21:03:21.963Z,36.76
2023-02-20T21:05:48.931Z,36.80
2023-02-20T21:08:15.751Z,36.79
2023-02-20T21:10:42.212Z,37.10
2023-02-20T21:13:11.083Z,36.64
2023-02-20T21:15:37.670Z,36.71
2023-02-20T21:18:04.369Z,37.13
2023-02-20T21:20:31.214Z,36.91
2023-02-20T21:22:58.416Z,37.24
2023-02-20T21:25:25.826Z,37.19
2023-02-20T21:27:53.115Z,36.74
2023-02-20T21:30:20.118Z,36.83
2023-02-20T21:32:46.756Z,36.71
2023-02-20T21:35:17.194Z,37.35
2023-02-20T21:37:43.765Z,36.70
2023-02-20T21:40:10.716Z,36.80
2023-02-20T21:42:55.840Z,36.78
2023-02-20T21:45:22.414Z,36.72
2023-02-20T21:47:52.201Z,36.86
2023-02-20T21:50:19.068Z,37.05
2023-02-20T21:52:45.982Z,36.96
2023-02-20T21:55:13.876Z,37.20
2023-02-20T21:57:40.372Z,37.00
2023-02-20T22:00:07.544Z,37.08
2023-02-20T22:02:34.473Z,37.47
2023-02-20T22:05:01.110Z,37.18
2023-02-20T22:07:46.193Z,37.03
2023-02-20T22:10:31.360Z,37.44
2023-02-20T22:13:16.684Z,37.56
2023-02-20T22:16:01.883Z,37.06
2023-02-20T22:18:47.282Z,37.53
2023-02-20T22:21:37.148Z,37.57
2023-02-20T22:24:30.435Z,37.67
2023-02-20T22:27:22.284Z,37.60
2023-02-20T22:30:07.472Z,37.39
2023-02-20T22:32:52.801Z,37.25
2023-02-20T22:35:38.058Z,37.25
2023-02-20T22:38:22.996Z,37.40
2023-02-20T22:41:08.497Z,37.61
2023-02-20T22:43:53.762Z,37.17
2023-02-20T22:46:41.901Z,37.24
2023-02-20T22:49:27.541Z,37.59
2023-02-20T22:52:12.513Z,37.12
2023-02-20T22:55:04.655Z,37.31
2023-02-20T22:57:50.648Z,37.46
2023-02-20T23:00:35.811Z,37.20
2023-02-20T23:03:21.433Z,37.61
2023-02-20T23:06:17.091Z,37.42
2023-02-20T23:09:03.617Z,37.12
2023-02-20T23:11:50.590Z,37.35
2023-02-20T23:14:35.860Z,37.51
2023-02-20T23:17:34.377Z,37.22
2023-02-20T23:20:21.075Z,37.69
2023-02-20T23:23:06.226Z,37.58
2023-02-20T23:25:51.907Z,37.26
2023-02-20T23:28:37.654Z,37.69
2023-02-20T23:31:23.008Z,37.20
2023-02-20T23:34:08.234Z,37.29
2023-02-20T23:36:53.325Z,37.65
2023-02-20T23:39:38.671Z,37.38
2023-02-20T23:42:23.665Z,37.39
2023-02-20T23:45:09.655Z,36.89
2023-02-20T23:47:55.079Z,37.23
2023-02-20T23:50:40.377Z,36.74
2023-02-20T23:53:25.637Z,37.03
2023-02-20T23:56:11.068Z,36.82
2023-02-20T23:58:56.170Z,37.09
